Time;durP1;ratioP1;P1;durP2;ratioP2;P2;SDS_P1;SDS_P2;PMS_P1;PMS_P2;Temp;Humidity;BMP_temperature;BMP_pressure;BME280_temperature;BME280_humidity;BME280_pressure;Samples;Min_cycle;Max_cycle;Signal;HPM_P1;HPM_P2
2024/01/26 00:00:18;;;;;;;2.30;0.52;;;9.30;99.90;;;;;;5092533;28;20055;-73
2024/01/26 00:02:43;;;;;;;0.57;0.50;;;9.20;99.90;;;;;;5102826;28;20024;-74
2024/01/26 00:05:09;;;;;;;0.30;0.30;;;9.00;99.90;;;;;;5093379;28;20024;-74
2024/01/26 00:07:34;;;;;;;0.75;0.50;;;8.90;99.90;;;;;;5080322;28;20055;-76
2024/01/26 00:10:00;;;;;;;1.15;0.55;;;8.80;99.90;;;;;;5086181;28;20020;-75
2024/01/26 00:12:26;;;;;;;1.13;0.50;;;8.60;99.90;;;;;;5102332;28;20035;-75
2024/01/26 00:14:51;;;;;;;0.40;0.40;;;8.60;99.90;;;;;;5098401;28;20062;-75
2024/01/26 00:17:17;;;;;;;1.10;0.43;;;8.40;99.90;;;;;;5082403;28;20023;-77
2024/01/26 00:19:43;;;;;;;0.47;0.47;;;8.20;99.90;;;;;;5081216;28;20063;-77
2024/01/26 00:22:08;;;;;;;1.80;0.50;;;8.20;99.90;;;;;;5082707;28;20048;-77
2024/01/26 00:24:34;;;;;;;0.73;0.55;;;8.20;99.90;;;;;;5081235;28;20052;-77
2024/01/26 00:27:00;;;;;;;1.00;0.90;;;8.10;99.90;;;;;;5091812;28;20097;-77
2024/01/26 00:29:25;;;;;;;3.35;0.40;;;8.10;99.90;;;;;;5102454;28;20038;-77
2024/01/26 00:31:51;;;;;;;1.60;0.80;;;8.10;99.90;;;;;;5076975;28;20035;-75
2024/01/26 00:34:17;;;;;;;1.02;0.60;;;8.00;99.90;;;;;;5063469;28;20127;-75
2024/01/26 00:36:44;;;;;;;0.40;0.40;;;8.00;99.90;;;;;;5061512;28;20025;-74
2024/01/26 00:39:10;;;;;;;0.20;0.20;;;8.10;99.90;;;;;;5060592;28;20040;-75
2024/01/26 00:41:37;;;;;;;0.40;0.35;;;8.20;99.90;;;;;;5057787;28;20041;-76
2024/01/26 00:44:03;;;;;;;1.13;0.60;;;8.30;99.90;;;;;;5059182;28;20078;-75
2024/01/26 00:46:29;;;;;;;4.05;1.13;;;8.30;99.90;;;;;;5059201;28;20025;-76
2024/01/26 00:48:55;;;;;;;1.38;0.50;;;8.20;99.90;;;;;;5040329;28;20025;-73
2024/01/26 00:51:21;;;;;;;0.40;0.40;;;8.40;99.90;;;;;;5057483;28;20476;-74
2024/01/26 00:53:47;;;;;;;0.82;0.50;;;8.40;99.90;;;;;;5042038;28;20024;-74
2024/01/26 00:56:13;;;;;;;0.90;0.50;;;8.50;99.90;;;;;;5072750;28;20066;-73
2024/01/26 00:58:38;;;;;;;0.70;0.70;;;8.50;99.90;;;;;;5079953;28;20438;-74
2024/01/26 01:01:04;;;;;;;0.80;0.60;;;8.50;99.90;;;;;;5079271;28;20024;-75
2024/01/26 01:03:30;;;;;;;0.60;0.60;;;8.40;99.90;;;;;;5060017;28;20170;-75
2024/01/26 01:05:56;;;;;;;1.02;0.40;;;8.40;99.90;;;;;;5080183;28;20036;-73
2024/01/26 01:08:22;;;;;;;0.50;0.50;;;8.30;99.90;;;;;;5079232;28;20101;-75
2024/01/26 01:10:48;;;;;;;1.10;0.45;;;8.40;99.90;;;;;;5080867;28;20024;-74
2024/01/26 01:13:14;;;;;;;0.52;0.50;;;8.50;99.90;;;;;;5080459;28;20029;-74
2024/01/26 01:15:40;;;;;;;0.57;0.57;;;8.50;99.90;;;;;;5075138;28;20086;-76
2024/01/26 01:18:06;;;;;;;0.93;0.60;;;8.50;99.90;;;;;;5080767;28;20032;-74
2024/01/26 01:20:31;;;;;;;1.25;0.40;;;8.60;99.90;;;;;;5072340;28;20044;-74
2024/01/26 01:22:58;;;;;;;0.45;0.45;;;8.40;99.90;;;;;;5059183;28;20071;-75
2024/01/26 01:25:25;;;;;;;1.58;0.50;;;8.50;99.90;;;;;;5059667;28;20017;-73
2024/01/26 01:27:50;;;;;;;1.35;0.63;;;8.40;99.90;;;;;;5075807;28;20016;-74
2024/01/26 01:30:17;;;;;;;0.60;0.60;;;8.30;99.90;;;;;;5075004;28;20096;-75
2024/01/26 01:32:42;;;;;;;0.57;0.55;;;8.10;99.90;;;;;;5057057;28;20040;-76
2024/01/26 01:35:08;;;;;;;0.75;0.57;;;8.00;99.90;;;;;;5060522;28;20037;-74
2024/01/26 01:37:34;;;;;;;0.85;0.40;;;7.90;99.90;;;;;;5058427;28;20081;-75
2024/01/26 01:40:00;;;;;;;4.40;0.93;;;8.50;99.90;;;;;;5058398;28;20020;-76
2024/01/26 01:42:25;;;;;;;2.75;0.73;;;7.80;99.90;;;;;;5058339;28;20017;-77
2024/01/26 01:44:51;;;;;;;2.28;0.93;;;7.80;99.90;;;;;;5059156;28;20025;-76
2024/01/26 01:47:17;;;;;;;1.85;0.65;;;7.80;99.90;;;;;;5042939;28;20017;-77
2024/01/26 01:49:43;;;;;;;0.95;0.63;;;7.90;99.90;;;;;;5060656;28;20024;-78
2024/01/26 01:52:13;;;;;;;2.13;1.13;;;7.70;99.90;;;;;;5059936;28;20035;-76
2024/01/26 01:54:40;;;;;;;0.90;0.90;;;7.70;99.90;;;;;;5043676;28;20093;-78
2024/01/26 01:57:06;;;;;;;0.65;0.50;;;7.60;99.90;;;;;;5043243;28;20025;-78
2024/01/26 01:59:32;;;;;;;0.70;0.70;;;7.60;99.90;;;;;;5043215;28;20029;-77
2024/01/26 02:01:58;;;;;;;0.70;0.70;;;7.70;99.90;;;;;;5042841;28;20021;-76
2024/01/26 02:04:24;;;;;;;1.48;0.70;;;7.60;99.90;;;;;;5059001;28;20067;-77
2024/01/26 02:06:57;;;;;;;1.83;0.95;;;7.50;99.90;;;;;;5060361;28;20067;-76
2024/01/26 02:09:23;;;;;;;3.70;0.88;;;7.50;99.90;;;;;;5043102;28;20555;-77
2024/01/26 02:11:49;;;;;;;0.80;0.80;;;7.50;99.90;;;;;;5043621;28;20024;-77
2024/01/26 02:14:15;;;;;;;0.93;0.77;;;7.70;99.90;;;;;;5041143;28;20075;-77
2024/01/26 02:16:55;;;;;;;0.60;0.60;;;7.70;99.90;;;;;;5058160;28;20024;-78
2024/01/26 02:19:21;;;;;;;1.23;0.63;;;7.80;99.90;;;;;;5040661;28;20316;-76
2024/01/26 02:21:47;;;;;;;0.70;0.63;;;7.70;99.90;;;;;;5059424;28;20021;-77
2024/01/26 02:24:13;;;;;;;0.80;0.63;;;7.60;99.90;;;;;;5042034;28;20457;-77
2024/01/26 02:26:39;;;;;;;0.70;0.70;;;7.60;99.90;;;;;;5043454;28;20021;-77
2024/01/26 02:29:05;;;;;;;0.68;0.68;;;7.60;99.90;;;;;;5041658;28;20025;-76
2024/01/26 02:31:31;;;;;;;2.63;0.60;;;7.50;99.90;;;;;;5042147;28;20043;-78
2024/01/26 02:33:57;;;;;;;1.02;0.77;;;7.60;99.90;;;;;;5057812;28;20124;-77
2024/01/26 02:36:22;;;;;;;0.80;0.70;;;7.60;99.90;;;;;;5057945;28;20227;-78
2024/01/26 02:38:48;;;;;;;2.15;0.82;;;7.70;99.90;;;;;;5042981;28;20032;-76
2024/01/26 02:41:14;;;;;;;1.00;1.00;;;7.80;99.90;;;;;;5042202;28;20017;-77
2024/01/26 02:43:40;;;;;;;3.13;0.77;;;7.80;99.90;;;;;;5059816;28;20253;-77
2024/01/26 02:46:10;;;;;;;0.55;0.55;;;7.80;99.90;;;;;;5040843;28;20255;-77
2024/01/26 02:48:35;;;;;;;3.55;1.27;;;7.80;99.90;;;;;;5041785;28;20236;-77
2024/01/26 02:51:01;;;;;;;1.95;0.82;;;7.70;99.90;;;;;;5043547;28;20021;-76
2024/01/26 02:53:27;;;;;;;1.30;0.80;;;7.70;99.90;;;;;;5046572;28;20325;-77
2024/01/26 02:55:53;;;;;;;0.98;0.80;;;7.60;99.90;;;;;;5063690;28;20029;-77
2024/01/26 02:58:18;;;;;;;3.25;1.15;;;7.70;99.90;;;;;;5045527;28;20101;-76
2024/01/26 03:00:44;;;;;;;3.28;1.27;;;7.60;99.90;;;;;;5063609;28;20060;-78
2024/01/26 03:03:10;;;;;;;0.88;0.85;;;7.50;99.90;;;;;;5060882;28;20028;-77
2024/01/26 03:05:36;;;;;;;0.90;0.65;;;7.50;99.90;;;;;;5064252;28;20080;-77
2024/01/26 03:08:02;;;;;;;3.38;1.50;;;7.40;99.90;;;;;;5046800;28;20056;-78
2024/01/26 03:10:28;;;;;;;0.73;0.73;;;7.70;99.90;;;;;;5060182;28;20021;-77
2024/01/26 03:12:55;;;;;;;1.60;0.75;;;7.70;99.90;;;;;;5046158;28;20285;-79
2024/01/26 03:15:20;;;;;;;2.80;0.77;;;7.70;99.90;;;;;;5062203;28;20016;-77
2024/01/26 03:17:46;;;;;;;1.63;0.75;;;7.70;99.90;;;;;;5060647;28;20033;-77
2024/01/26 03:20:13;;;;;;;1.27;0.73;;;7.70;99.90;;;;;;5045031;28;20136;-77
2024/01/26 03:22:38;;;;;;;3.05;1.05;;;7.70;99.90;;;;;;5061252;28;20017;-77
2024/01/26 03:25:04;;;;;;;3.40;0.80;;;7.70;99.90;;;;;;5045385;28;20064;-77
2024/01/26 03:27:30;;;;;;;2.95;0.80;;;7.80;99.90;;;;;;5042791;28;20067;-77
2024/01/26 03:29:56;;;;;;;0.93;0.80;;;7.80;99.90;;;;;;5043310;28;20039;-77
2024/01/26 03:32:21;;;;;;;0.85;0.50;;;7.80;99.90;;;;;;5045183;28;20032;-77
2024/01/26 03:34:47;;;;;;;0.50;0.50;;;7.80;99.90;;;;;;5078947;28;20359;-76
2024/01/26 03:37:13;;;;;;;3.55;0.90;;;7.70;99.90;;;;;;5080866;28;20496;-77
2024/01/26 03:39:38;;;;;;;1.67;0.50;;;7.70;99.90;;;;;;5082176;28;20050;-77
2024/01/26 03:42:05;;;;;;;0.60;0.40;;;7.60;99.90;;;;;;5081923;28;20020;-77
2024/01/26 03:44:31;;;;;;;3.00;0.80;;;7.70;99.90;;;;;;5083050;28;20021;-77
2024/01/26 03:46:58;;;;;;;1.83;0.73;;;7.70;99.90;;;;;;5083133;28;20020;-77
2024/01/26 03:49:24;;;;;;;1.58;0.90;;;7.80;99.90;;;;;;5081698;28;20047;-77
2024/01/26 03:51:49;;;;;;;3.60;0.90;;;7.70;99.90;;;;;;5082594;28;20028;-76
2024/01/26 03:54:15;;;;;;;2.22;0.98;;;7.70;99.90;;;;;;5081493;28;20252;-76
2024/01/26 03:56:41;;;;;;;4.13;0.85;;;7.70;99.90;;;;;;5080363;28;20033;-77
2024/01/26 03:59:06;;;;;;;3.20;0.60;;;7.70;99.90;;;;;;5081830;28;20063;-77
2024/01/26 04:01:32;;;;;;;2.60;0.60;;;7.80;99.90;;;;;;5080207;28;20190;-78
2024/01/26 04:03:58;;;;;;;1.63;0.90;;;7.70;99.90;;;;;;5077617;28;20028;-76
2024/01/26 04:06:23;;;;;;;0.90;0.60;;;7.70;99.90;;;;;;5081653;28;20216;-76
2024/01/26 04:08:49;;;;;;;1.80;1.33;;;7.60;99.90;;;;;;5080986;28;20063;-77
2024/01/26 04:11:15;;;;;;;5.15;0.77;;;7.50;99.90;;;;;;5077846;28;20017;-77
2024/01/26 04:13:41;;;;;;;1.15;1.10;;;7.60;99.90;;;;;;5082969;28;20017;-76
2024/01/26 04:16:07;;;;;;;1.00;1.00;;;7.50;99.90;;;;;;5079386;28;20020;-77
2024/01/26 04:18:33;;;;;;;0.80;0.70;;;7.60;99.90;;;;;;5078795;28;20107;-76
2024/01/26 04:20:58;;;;;;;0.75;0.68;;;7.70;99.90;;;;;;5082924;28;20028;-77
2024/01/26 04:23:24;;;;;;;0.60;0.60;;;7.80;99.90;;;;;;5081359;28;20028;-77
2024/01/26 04:25:50;;;;;;;2.20;0.75;;;7.70;99.90;;;;;;5078429;28;20030;-77
2024/01/26 04:28:16;;;;;;;2.78;0.70;;;7.60;99.90;;;;;;5080887;28;20023;-78
2024/01/26 04:30:43;;;;;;;2.78;0.60;;;7.50;99.90;;;;;;5080996;28;20028;-77
2024/01/26 04:33:09;;;;;;;0.60;0.60;;;7.50;99.90;;;;;;5081003;28;20064;-76
2024/01/26 04:35:35;;;;;;;0.57;0.57;;;7.60;99.90;;;;;;5080338;28;20024;-77
2024/01/26 04:38:01;;;;;;;0.70;0.70;;;7.60;99.90;;;;;;5076651;28;20028;-76
2024/01/26 04:40:27;;;;;;;3.80;0.80;;;7.50;99.90;;;;;;5080471;28;20050;-77
2024/01/26 04:42:52;;;;;;;1.85;0.75;;;7.60;99.90;;;;;;5077715;28;20305;-77
2024/01/26 04:45:18;;;;;;;0.60;0.60;;;7.70;99.90;;;;;;5078345;28;20032;-77
2024/01/26 04:47:44;;;;;;;0.70;0.70;;;7.60;99.90;;;;;;5079038;28;20060;-76
2024/01/26 04:50:10;;;;;;;2.33;1.40;;;7.60;99.90;;;;;;5081890;28;20253;-78
2024/01/26 04:52:36;;;;;;;2.08;1.00;;;7.20;99.90;;;;;;5078431;28;20039;-76
2024/01/26 04:55:02;;;;;;;1.45;0.70;;;7.70;99.90;;;;;;5078775;28;20028;-76
2024/01/26 04:57:37;;;;;;;1.75;1.08;;;7.70;99.90;;;;;;5080291;28;20304;-77
2024/01/26 05:00:04;;;;;;;2.20;0.82;;;7.70;99.90;;;;;;5081980;28;20247;-77
2024/01/26 05:02:29;;;;;;;0.70;0.65;;;7.70;99.90;;;;;;5080658;28;20024;-77
2024/01/26 05:04:55;;;;;;;1.92;0.88;;;7.70;99.90;;;;;;5070782;28;20179;-77
2024/01/26 05:07:21;;;;;;;1.42;0.98;;;7.60;99.90;;;;;;5069331;28;20117;-78
2024/01/26 05:09:46;;;;;;;0.57;0.50;;;7.70;99.90;;;;;;5066674;28;20500;-77
2024/01/26 05:12:12;;;;;;;1.13;0.98;;;7.60;99.90;;;;;;5067933;28;20021;-77
2024/01/26 05:14:38;;;;;;;0.90;0.90;;;7.70;99.90;;;;;;5068340;28;20032;-77
2024/01/26 05:17:03;;;;;;;1.88;0.90;;;7.80;99.90;;;;;;5069302;28;20520;-77
2024/01/26 05:19:29;;;;;;;0.60;0.60;;;7.70;99.90;;;;;;5070198;28;20036;-78
2024/01/26 05:21:55;;;;;;;4.15;0.70;;;7.70;99.90;;;;;;5068495;28;20052;-77
2024/01/26 05:24:20;;;;;;;2.75;0.68;;;7.60;99.90;;;;;;5070277;28;20029;-77
2024/01/26 05:26:46;;;;;;;2.67;1.15;;;7.50;99.90;;;;;;5069987;28;20063;-76
2024/01/26 05:29:14;;;;;;;1.02;0.93;;;7.70;99.90;;;;;;5068453;28;20025;-77
2024/01/26 05:31:41;;;;;;;1.15;0.70;;;7.70;99.90;;;;;;5070054;28;20097;-77
2024/01/26 05:34:06;;;;;;;0.60;0.60;;;7.70;99.90;;;;;;5068349;28;20052;-77
2024/01/26 05:36:32;;;;;;;1.33;0.73;;;7.60;99.90;;;;;;5068824;28;20025;-77
2024/01/26 05:38:58;;;;;;;0.70;0.70;;;7.70;99.90;;;;;;5069592;28;20033;-78
2024/01/26 05:41:23;;;;;;;1.48;0.55;;;7.50;99.90;;;;;;5067714;28;20477;-77
2024/01/26 05:43:50;;;;;;;1.15;0.65;;;7.50;99.90;;;;;;5068734;28;20142;-77
2024/01/26 05:46:16;;;;;;;1.15;0.60;;;7.40;99.90;;;;;;5068003;28;20024;-76
2024/01/26 05:48:45;;;;;;;2.92;0.75;;;7.40;99.90;;;;;;5069693;28;20070;-77
2024/01/26 05:51:12;;;;;;;0.70;0.70;;;7.50;99.90;;;;;;5068565;28;20024;-77
2024/01/26 05:53:38;;;;;;;3.95;0.70;;;7.50;99.90;;;;;;5068679;28;20032;-77
2024/01/26 05:56:04;;;;;;;2.08;0.73;;;7.40;99.90;;;;;;5068327;28;20028;-77
2024/01/26 05:58:31;;;;;;;1.45;0.70;;;7.30;99.90;;;;;;5069095;28;20032;-77
2024/01/26 06:00:57;;;;;;;2.58;0.60;;;7.30;99.90;;;;;;5069678;28;20025;-76
2024/01/26 06:03:23;;;;;;;1.17;0.70;;;7.30;99.90;;;;;;5068418;28;20120;-77
2024/01/26 06:05:49;;;;;;;0.75;0.70;;;7.30;99.90;;;;;;5069485;28;20055;-76
2024/01/26 06:08:14;;;;;;;2.25;0.98;;;7.30;99.90;;;;;;5069648;28;20032;-78
2024/01/26 06:10:40;;;;;;;0.68;0.63;;;7.10;99.90;;;;;;5068333;28;20116;-77
2024/01/26 06:13:06;;;;;;;6.90;0.95;;;7.00;99.90;;;;;;5067764;28;20029;-76
2024/01/26 06:15:32;;;;;;;1.45;1.33;;;7.00;99.90;;;;;;5068075;28;20052;-77
2024/01/26 06:17:57;;;;;;;4.50;1.80;;;7.10;99.90;;;;;;5067939;28;20550;-77
2024/01/26 06:20:23;;;;;;;2.55;1.20;;;7.10;99.90;;;;;;5069287;28;20095;-76
2024/01/26 06:22:49;;;;;;;4.18;2.28;;;7.20;99.90;;;;;;5069481;28;20481;-77
2024/01/26 06:25:14;;;;;;;7.15;5.00;;;7.30;99.90;;;;;;5071297;28;20031;-77
2024/01/26 06:27:40;;;;;;;3.47;3.17;;;7.30;99.90;;;;;;5072107;28;20203;-77
2024/01/26 06:30:06;;;;;;;3.65;3.35;;;7.40;99.90;;;;;;5075991;28;20051;-77
2024/01/26 06:32:32;;;;;;;2.63;1.30;;;7.40;99.90;;;;;;5091074;28;20008;-78
2024/01/26 06:34:57;;;;;;;4.18;1.17;;;7.40;99.90;;;;;;5074426;28;20024;-77
2024/01/26 06:37:23;;;;;;;3.85;1.98;;;7.40;99.90;;;;;;5052951;28;20264;-77
2024/01/26 06:39:50;;;;;;;2.03;1.00;;;7.50;99.90;;;;;;5074618;28;20070;-77
2024/01/26 06:42:21;;;;;;;1.70;1.00;;;7.60;99.90;;;;;;5055531;28;20112;-76
2024/01/26 06:44:46;;;;;;;1.13;0.75;;;7.60;99.90;;;;;;5055151;28;20032;-77
2024/01/26 06:47:12;;;;;;;2.38;1.23;;;7.70;99.90;;;;;;5072888;28;20016;-77
2024/01/26 06:49:38;;;;;;;2.50;1.00;;;7.40;99.90;;;;;;5072980;28;20077;-77
2024/01/26 06:52:04;;;;;;;1.13;0.70;;;7.30;99.90;;;;;;5055147;28;20480;-76
2024/01/26 06:54:29;;;;;;;1.35;0.80;;;7.10;99.90;;;;;;5072894;28;20488;-77
2024/01/26 06:56:55;;;;;;;2.20;0.80;;;7.00;99.90;;;;;;5054267;28;20021;-77
2024/01/26 06:59:21;;;;;;;5.80;1.80;;;7.00;99.90;;;;;;5046711;28;20079;-78
2024/01/26 07:01:46;;;;;;;1.63;1.35;;;7.00;99.90;;;;;;5043983;28;20021;-78
2024/01/26 07:04:12;;;;;;;2.90;1.50;;;6.90;99.90;;;;;;5061970;28;20021;-75
2024/01/26 07:06:38;;;;;;;4.10;2.28;;;6.90;99.90;;;;;;5069010;28;20374;-77
2024/01/26 07:09:03;;;;;;;9.00;4.80;;;7.00;99.90;;;;;;5050728;28;20313;-77
2024/01/26 07:11:29;;;;;;;3.63;1.60;;;7.00;99.90;;;;;;5069641;28;20513;-77
2024/01/26 07:13:54;;;;;;;3.78;1.90;;;7.00;99.90;;;;;;5050509;28;20028;-77
2024/01/26 07:16:20;;;;;;;1.80;1.40;;;7.10;99.90;;;;;;5043309;28;20017;-77
2024/01/26 07:18:46;;;;;;;1.52;1.42;;;7.00;99.90;;;;;;5063493;28;20029;-76
2024/01/26 07:21:12;;;;;;;1.80;1.67;;;6.90;99.90;;;;;;5044579;28;20017;-76
2024/01/26 07:23:40;;;;;;;1.48;1.38;;;6.80;99.90;;;;;;5050750;28;20483;-76
2024/01/26 07:26:07;;;;;;;83.55;35.17;;;8.00;99.90;;;;;;5044810;28;20016;-75
2024/01/26 07:28:33;;;;;;;16.63;8.45;;;7.10;99.90;;;;;;5054671;28;20041;-76
2024/01/26 07:30:58;;;;;;;3.58;2.50;;;7.10;99.90;;;;;;5064227;28;20060;-76
2024/01/26 07:33:24;;;;;;;4.40;3.95;;;7.10;99.90;;;;;;5056787;28;20546;-77
2024/01/26 07:35:50;;;;;;;18.48;8.70;;;7.10;99.90;;;;;;5093441;28;20028;-78
2024/01/26 07:38:15;;;;;;;3.95;3.00;;;7.30;99.90;;;;;;5092617;28;20028;-76
2024/01/26 07:40:41;;;;;;;8.43;3.60;;;7.20;99.90;;;;;;5094291;28;20363;-77
2024/01/26 07:43:08;;;;;;;7.38;4.38;;;7.30;99.90;;;;;;5090379;28;20305;-76
2024/01/26 07:45:34;;;;;;;4.30;3.67;;;7.20;99.90;;;;;;5092437;28;20024;-75
2024/01/26 07:48:00;;;;;;;9.05;6.50;;;6.70;99.90;;;;;;5093090;28;20031;-76
2024/01/26 07:50:26;;;;;;;8.38;4.50;;;7.30;99.90;;;;;;5092575;28;20020;-76
2024/01/26 07:52:51;;;;;;;5.28;3.00;;;7.40;99.90;;;;;;5092649;28;20081;-76
2024/01/26 07:55:17;;;;;;;4.10;3.22;;;7.50;99.90;;;;;;5092815;28;20024;-77
2024/01/26 07:57:43;;;;;;;5.50;3.00;;;7.60;99.90;;;;;;5091477;28;20032;-76
2024/01/26 08:00:10;;;;;;;4.75;3.67;;;7.80;99.90;;;;;;5083182;28;20022;-77
2024/01/26 08:02:36;;;;;;;6.07;3.67;;;7.90;99.90;;;;;;5082428;28;20035;-77
2024/01/26 08:05:02;;;;;;;3.33;2.72;;;7.90;99.90;;;;;;5093539;28;20027;-76
2024/01/26 08:07:27;;;;;;;8.60;3.10;;;8.00;99.90;;;;;;5092856;28;20073;-77
2024/01/26 08:09:53;;;;;;;7.30;2.22;;;8.20;99.90;;;;;;5091893;28;20012;-77
2024/01/26 08:12:20;;;;;;;3.10;2.58;;;8.30;99.90;;;;;;5087687;28;20032;-77
2024/01/26 08:14:46;;;;;;;5.63;2.90;;;8.40;99.90;;;;;;5091188;28;20034;-77
2024/01/26 08:17:12;;;;;;;4.25;3.72;;;8.50;99.90;;;;;;5090059;28;20021;-77
2024/01/26 08:19:37;;;;;;;8.05;3.17;;;8.50;99.90;;;;;;5090045;28;20021;-78
2024/01/26 08:22:04;;;;;;;4.97;3.03;;;8.50;99.90;;;;;;5091733;28;20018;-77
2024/01/26 08:24:29;;;;;;;3.83;2.95;;;8.50;99.90;;;;;;5079018;28;20074;-77
2024/01/26 08:26:55;;;;;;;3.80;3.05;;;8.60;99.90;;;;;;5078226;28;20028;-77
2024/01/26 08:29:24;;;;;;;4.72;3.25;;;8.50;99.90;;;;;;5077477;28;20066;-77
2024/01/26 08:31:50;;;;;;;;;;;8.60;99.90;;;;;;5080249;28;20025;-78
2024/01/26 08:34:16;;;;;;;5.85;2.03;;;8.50;99.90;;;;;;5078516;28;19926;-77
2024/01/26 08:36:41;;;;;;;5.03;3.83;;;8.60;99.90;;;;;;5080317;28;20118;-77
2024/01/26 08:39:11;;;;;;;2.90;2.60;;;8.90;99.90;;;;;;5080246;28;20094;-77
2024/01/26 08:41:37;;;;;;;2.60;1.63;;;9.00;99.90;;;;;;5080003;28;20063;-77
2024/01/26 08:44:03;;;;;;;1.40;1.30;;;9.30;99.90;;;;;;5078331;28;20059;-77
2024/01/26 08:46:29;;;;;;;2.83;1.27;;;9.60;99.90;;;;;;5080436;28;20012;-77
2024/01/26 08:48:55;;;;;;;1.27;1.17;;;10.00;99.90;;;;;;5079467;28;20107;-77
2024/01/26 08:51:22;;;;;;;4.20;1.80;;;10.30;99.90;;;;;;5079500;28;20107;-77
2024/01/26 08:53:48;;;;;;;1.00;0.98;;;10.50;99.90;;;;;;5080592;28;20202;-78
2024/01/26 08:56:14;;;;;;;2.58;1.35;;;10.60;99.90;;;;;;5079738;28;20171;-78
2024/01/26 08:58:41;;;;;;;0.77;0.75;;;10.60;99.90;;;;;;5077387;28;20035;-76
2024/01/26 09:01:07;;;;;;;1.60;0.95;;;10.70;99.90;;;;;;5079183;28;20484;-77
2024/01/26 09:03:33;;;;;;;2.00;1.10;;;10.80;99.90;;;;;;5081042;28;20025;-77
2024/01/26 09:05:59;;;;;;;3.88;1.50;;;10.80;99.90;;;;;;5077771;28;20369;-77
2024/01/26 09:08:25;;;;;;;1.83;1.73;;;10.90;99.90;;;;;;5079341;28;20020;-77
2024/01/26 09:10:50;;;;;;;2.05;1.33;;;11.00;99.90;;;;;;5078811;28;20012;-77
2024/01/26 09:13:16;;;;;;;1.38;1.10;;;11.00;99.90;;;;;;5077350;28;20468;-78
2024/01/26 09:15:42;;;;;;;2.67;1.85;;;11.10;99.90;;;;;;5079626;28;20016;-77
2024/01/26 09:18:08;;;;;;;2.33;1.10;;;11.20;99.90;;;;;;5078102;28;20037;-76
2024/01/26 09:20:34;;;;;;;1.75;1.30;;;11.20;99.90;;;;;;5075277;28;20045;-78
2024/01/26 09:22:59;;;;;;;1.35;1.05;;;11.20;99.90;;;;;;5070018;28;20025;-76
2024/01/26 09:25:25;;;;;;;1.83;1.15;;;11.40;99.90;;;;;;5070069;28;20025;-77
2024/01/26 09:27:51;;;;;;;1.55;1.05;;;11.50;99.90;;;;;;5069891;28;20024;-77
2024/01/26 09:30:17;;;;;;;1.13;1.10;;;11.50;99.90;;;;;;5071903;28;20032;-76
2024/01/26 09:32:42;;;;;;;2.67;1.20;;;11.70;99.90;;;;;;5065997;28;20032;-76
2024/01/26 09:35:09;;;;;;;2.05;1.05;;;11.90;99.90;;;;;;5049617;28;20479;-75
2024/01/26 09:37:36;;;;;;;6.45;1.88;;;12.10;99.90;;;;;;5056340;28;20032;-74
2024/01/26 09:40:02;;;;;;;1.60;1.10;;;12.40;99.90;;;;;;5069470;28;20026;-75
2024/01/26 09:42:29;;;;;;;1.45;1.15;;;12.50;99.90;;;;;;5068674;28;20051;-76
2024/01/26 09:45:35;;;;;;;1.75;1.02;;;12.70;99.90;;;;;;5068799;28;20384;-74
2024/01/26 09:48:08;;;;;;;1.88;0.90;;;12.90;99.90;;;;;;5066561;28;20063;-75
2024/01/26 09:50:34;;;;;;;2.22;1.00;;;13.10;99.90;;;;;;5064789;28;20021;-75
2024/01/26 09:53:03;;;;;;;2.05;0.93;;;13.10;99.90;;;;;;5069151;28;20050;-77
2024/01/26 09:55:31;;;;;;;1.33;1.23;;;13.10;99.90;;;;;;5069264;28;20021;-75
2024/01/26 09:57:57;;;;;;;1.65;0.95;;;13.10;99.90;;;;;;5068172;28;20037;-76
2024/01/26 10:00:32;;;;;;;1.73;1.10;;;12.90;99.90;;;;;;5067720;28;20044;-76
2024/01/26 10:03:04;;;;;;;2.47;1.10;;;12.80;99.90;;;;;;5037579;28;20114;-76
2024/01/26 10:06:04;;;;;;;2.00;1.05;;;12.50;99.90;;;;;;5048649;28;20044;-75
2024/01/26 10:10:43;;;;;;;1.20;1.10;;;12.60;99.90;;;;;;5030886;28;20183;-76
2024/01/26 10:13:03;;;;;;;1.67;1.20;;;12.40;99.90;;;;;;4921081;29;20600;-78
2024/01/26 10:15:32;;;;;;;1.20;1.10;;;12.50;99.90;;;;;;4952580;28;20556;-74
2024/01/26 10:17:58;;;;;;;1.00;0.90;;;12.50;99.90;;;;;;5043063;28;20394;-79
2024/01/26 10:21:00;;;;;;;4.57;2.83;;;12.50;99.90;;;;;;5030366;28;20453;-76
2024/01/26 10:23:27;;;;;;;5.80;4.00;;;12.50;99.90;;;;;;5047261;28;20295;-75
2024/01/26 10:25:53;;;;;;;9.43;4.43;;;12.60;99.90;;;;;;5050053;28;20036;-78
2024/01/26 10:28:25;;;;;;;2.78;2.25;;;12.60;99.90;;;;;;5048213;28;20029;-76
2024/01/26 10:30:50;;;;;;;1.60;1.50;;;12.60;99.90;;;;;;5048395;28;20021;-77
2024/01/26 10:33:16;;;;;;;5.10;3.78;;;12.40;99.90;;;;;;5048678;28;20450;-77
2024/01/26 10:35:48;;;;;;;2.88;2.00;;;12.30;99.90;;;;;;5031008;28;20497;-74
2024/01/26 10:38:14;;;;;;;4.10;1.80;;;12.00;99.90;;;;;;5048172;28;20041;-77
2024/01/26 10:40:46;;;;;;;3.60;2.15;;;11.70;99.90;;;;;;5048700;28;20100;-74
2024/01/26 10:43:12;;;;;;;2.20;1.90;;;11.50;99.90;;;;;;5048513;28;20031;-76
2024/01/26 10:45:38;;;;;;;2.50;1.80;;;11.40;99.90;;;;;;5048915;28;20473;-77
2024/01/26 10:48:07;;;;;;;2.85;1.98;;;11.50;99.90;;;;;;5048656;28;20029;-78
2024/01/26 10:50:35;;;;;;;4.70;2.45;;;11.40;99.90;;;;;;5030756;28;20049;-75
2024/01/26 10:53:04;;;;;;;3.40;2.63;;;11.40;99.90;;;;;;5050865;28;20029;-76
2024/01/26 10:55:30;;;;;;;6.50;3.05;;;11.30;99.90;;;;;;5056145;28;20071;-76
2024/01/26 10:57:56;;;;;;;5.25;3.42;;;11.20;99.90;;;;;;5056954;28;20369;-74
2024/01/26 11:00:22;;;;;;;2.78;2.53;;;11.20;99.90;;;;;;5059249;28;20020;-77
2024/01/26 11:02:49;;;;;;;5.40;2.95;;;11.10;99.90;;;;;;5057632;28;20027;-77
2024/01/26 11:05:17;;;;;;;3.67;3.05;;;11.00;99.90;;;;;;5056266;28;20489;-77
2024/01/26 11:07:43;;;;;;;8.20;4.03;;;11.10;99.90;;;;;;5040937;28;20381;-77
2024/01/26 11:10:15;;;;;;;4.05;2.80;;;11.10;99.90;;;;;;5068336;28;20017;-76
2024/01/26 11:12:41;;;;;;;4.30;2.63;;;11.10;99.90;;;;;;5055146;28;20017;-77
2024/01/26 11:15:08;;;;;;;3.40;2.38;;;11.10;99.90;;;;;;5071212;28;20128;-76
2024/01/26 11:17:45;;;;;;;2.88;2.55;;;11.10;99.90;;;;;;5071381;28;20077;-76
2024/01/26 11:20:32;;;;;;;3.67;2.85;;;11.10;99.90;;;;;;5071622;28;20036;-77
2024/01/26 11:23:00;;;;;;;3.42;3.00;;;11.00;99.90;;;;;;5048213;28;20107;-76
2024/01/26 11:25:31;;;;;;;6.25;3.22;;;11.00;99.90;;;;;;5052814;28;20016;-77
2024/01/26 11:28:02;;;;;;;6.93;3.00;;;11.00;99.90;;;;;;5051431;28;20033;-76
2024/01/26 11:30:28;;;;;;;6.93;3.08;;;10.90;99.90;;;;;;5052114;28;20070;-76
2024/01/26 11:32:54;;;;;;;5.00;2.55;;;10.90;99.90;;;;;;5037212;28;20492;-76
2024/01/26 11:35:20;;;;;;;4.57;2.53;;;10.90;99.90;;;;;;5072343;28;20028;-76
2024/01/26 11:37:47;;;;;;;2.88;2.67;;;10.90;99.90;;;;;;5070547;28;20029;-76
2024/01/26 11:40:14;;;;;;;3.20;2.88;;;11.00;99.90;;;;;;5071867;28;20037;-77
2024/01/26 11:42:40;;;;;;;3.40;2.50;;;11.00;99.90;;;;;;5071858;28;20093;-76
2024/01/26 11:45:13;;;;;;;4.00;2.33;;;11.10;99.90;;;;;;5071888;28;20032;-76
2024/01/26 11:47:42;;;;;;;8.02;3.03;;;11.10;99.90;;;;;;5071696;28;20029;-76
2024/01/26 11:50:12;;;;;;;4.63;2.75;;;11.10;99.90;;;;;;5072042;28;20039;-76
2024/01/26 11:52:38;;;;;;;4.38;2.22;;;11.10;99.90;;;;;;5071527;28;20042;-76
2024/01/26 11:55:06;;;;;;;4.60;2.35;;;11.10;99.90;;;;;;5070330;28;20036;-77
2024/01/26 11:57:32;;;;;;;4.07;2.17;;;11.10;99.90;;;;;;5069722;28;20395;-77
2024/01/26 12:00:04;;;;;;;3.17;2.40;;;11.20;99.90;;;;;;5071643;28;20032;-77
2024/01/26 12:02:30;;;;;;;2.85;1.92;;;11.30;99.90;;;;;;5070344;28;20047;-76
2024/01/26 12:04:55;;;;;;;4.00;2.50;;;11.30;99.90;;;;;;5071301;28;20477;-77
2024/01/26 12:07:22;;;;;;;3.55;2.08;;;11.40;99.90;;;;;;5071301;28;20476;-76
2024/01/26 12:09:48;;;;;;;3.83;2.78;;;11.40;99.90;;;;;;5071413;28;20024;-76
2024/01/26 12:12:14;;;;;;;4.63;1.98;;;11.50;99.90;;;;;;5070769;28;20500;-77
2024/01/26 12:14:40;;;;;;;2.53;1.80;;;11.60;99.90;;;;;;5071353;28;20032;-76
2024/01/26 12:17:06;;;;;;;2.10;2.00;;;11.70;99.90;;;;;;5071145;28;20028;-77
2024/01/26 12:19:32;;;;;;;1.27;1.15;;;11.80;99.90;;;;;;5071155;28;20029;-77
2024/01/26 12:21:58;;;;;;;2.88;1.67;;;11.90;99.90;;;;;;5070388;28;20028;-77
2024/01/26 12:24:24;;;;;;;3.90;1.55;;;12.00;99.90;;;;;;5065930;28;20373;-75
2024/01/26 12:26:51;;;;;;;1.35;1.25;;;12.10;99.90;;;;;;5082596;28;20072;-75
2024/01/26 12:29:17;;;;;;;3.17;1.10;;;12.20;99.90;;;;;;5089941;28;20085;-75
2024/01/26 12:31:43;;;;;;;1.35;1.10;;;12.20;99.90;;;;;;5090943;28;20028;-75
2024/01/26 12:34:15;;;;;;;1.10;1.00;;;12.20;99.90;;;;;;5089564;28;20098;-78
2024/01/26 12:36:41;;;;;;;3.45;1.30;;;12.20;99.90;;;;;;5090900;28;20267;-74
2024/01/26 12:39:07;;;;;;;1.73;0.90;;;12.20;99.90;;;;;;5090876;28;20690;-76
2024/01/26 12:41:34;;;;;;;3.63;0.80;;;12.20;99.90;;;;;;5089361;28;20016;-76
2024/01/26 12:44:00;;;;;;;0.75;0.75;;;12.10;99.90;;;;;;5081276;28;20025;-75
2024/01/26 12:46:26;;;;;;;1.20;0.57;;;12.10;99.90;;;;;;5079192;28;20070;-75
2024/01/26 12:48:52;;;;;;;0.80;0.80;;;12.10;99.90;;;;;;5080998;28;20028;-75
2024/01/26 12:51:19;;;;;;;0.98;0.90;;;12.10;99.90;;;;;;5079173;28;20082;-75